Terminal Aerodrome Forecast
Issued by NWS

Home | Current Version | Previous Version | Text Only | Print | Product List | Glossary On
Versions: 1 2 3 4 5 6 7 8 9 10 11 12 13 14 15
000
FTUS45 KRIW 301700
TAFRKS
TAF
KRKS 301726Z 3018/3118 20006KT P6SM SCT250
     FM302000 25012KT P6SM SCT070
     FM310200 24008KT P6SM FEW080=

USA.gov is the U.S. government's official web portal to all federal, state and local government web resources and services.